George Bush Intercontinental Houston Airport
KIAH : now visible

Airfield :











YOU CAN JOIN US ON...

 
LOGIN :

Register | Disclaimer

   EN    FR    IT 

 









Legend :    VFR   Marginal VFR   IFR   Intensive IFR   Very Intensive IFR
Visi :
Ceiling :
>= 8 km
>= 3000ft
5 to 8 km
1000 to 3000 ft
1500m to 5 km
500 to 1000 ft
800 to 1500m
200 to 500 ft
< 800m
< 200 ft
Symbols :   Thunderstorms  Fog  Heavy snow  Heavy precipitations  Wind > 20 kt






- Airport Elevation : 97 ft
- IATA code : IAH


KIAH - George Bush Intercontinental Houston

CURRENT METAR :
  • 080553Z 21005KT 8SM FEW180 BKN250 23/21 A2992 RMK AO2 SLP130 T02330211 10289 20233 403060222 58001

EXPIRED METARs :
  • 080453Z 18004KT 8SM FEW180 SCT250 24/22 A2992 RMK AO2 SLP130 T02390217
  • 080353Z 18004KT 10SM SCT180 BKN250 26/22 A2993 RMK AO2 SLP133 T02560217

TAF KIAH
Valid from the 08 at 06:00 until the 09 at 12:00 UTC


080520Z 0806/0912 18004KT P6SM SCT180
FM080700 20005KT P6SM BKN025
FM080800 20005KT 6SM BR BKN015
TEMPO 0809/0813 3SM BR OVC009
FM081700 22005KT P6SM BKN035
FM081900 23005KT P6SM SCT050
FM090900 VRB04KT P6SM BKN030



MET'MAP, your aeronautical weather chart ! - Copyright ORBIFLY December 2007 - Disclaimer

ORBIFLY MET'MAP TEAM :

Programming & Development : Alexandra Zaïnal
Concept & original design : Baudouin d'Aumeries
Assistance for programming : Marc-Olivier Méhu
Technical & hardware support : Manuel Goepfert

Contact : metmap@orbifly.com




SOURCES & CREDITS :

   NOAA       Earth
Advisory